Historique des mesures à Cassis (13260), France
Quotidien Résumé Juin 10, 2021 Unités:  Métrique/US    US   Métrique
Quotidien Hebdomadaire Mensuel Annuel
  Maximum: Minimum: Moyenne:
Température: 67.6 °F /  19.8 °C 57 °F /  13.9 °C 61.9 °F /  16.6 °C
Point de rosée: 56.3 °F /  13.5 °C 46.9 °F /  8.3 °C 52 °F /  11.1 °C
Humidité: 83% 54% 71%
Vitesse du vent: 15mph /  24.1km/h - 2.5mph /  4km/h
Rafales: 16.1mph /  25.9km/h - -
Vent- - West
Pression: 30.1 in /  1019.4 hPa 30 in /  1015.2 hPa -
Précipitations: 0 in /  0.0 mm    
Historical Graphs
 
 
Mesures pour : Juin 10, 2021
Heure Temperature Point de rosée Pression Vent Vitesse du vent Rafales Humidité Pluie (par heure)
00:11 59.7 °F /  15.4 °C 51.1 °F /  10.6 °C 30.1in /  1019.2hPa NW 2.2mph /  3.6km/h 4.9mph /  7.9km/h 73% 0in /  0.0mm
01:11 59.7 °F /  15.4 °C 51.1 °F /  10.6 °C 30.1in /  1019.3hPa WNW 2.5mph /  4km/h 3.8mph /  6.1km/h 73% 0in /  0.0mm
02:11 60.1 °F /  15.6 °C 51.8 °F /  11 °C 30.1in /  1019.2hPa Calm   2mph /  3.2km/h 74% 0in /  0.0mm
03:11 61.2 °F /  16.2 °C 53.2 °F /  11.8 °C 30.1in /  1019.4hPa Calm   3.4mph /  5.4km/h 75% 0in /  0.0mm
04:11 60.4 °F /  15.8 °C 54.3 °F /  12.4 °C 30.1in /  1019.1hPa Calm     80% 0in /  0.0mm
05:11 59.5 °F /  15.3 °C 54.3 °F /  12.4 °C 30.1in /  1018.9hPa Calm   0.9mph /  1.4km/h 83% 0in /  0.0mm
06:11 59.2 °F /  15.1 °C 54 °F /  12.2 °C 30.1in /  1018.5hPa West 0.9mph /  1.4km/h 1.4mph /  2.2km/h 83% 0in /  0.0mm
07:11 58.1 °F /  14.5 °C 52.9 °F /  11.6 °C 30.1in /  1018.5hPa WNW 1.1mph /  1.8km/h 2.5mph /  4km/h 83% 0in /  0.0mm
08:11 57 °F /  13.9 °C 51.6 °F /  10.9 °C 30.1in /  1018.7hPa NW 4mph /  6.5km/h 6.7mph /  10.8km/h 82% 0in /  0.0mm
09:11 58.3 °F /  14.6 °C 53.1 °F /  11.7 °C 30.1in /  1019.0hPa Calm   2.7mph /  4.3km/h 83% 0in /  0.0mm
10:11 61.9 °F /  16.6 °C 54.9 °F /  12.7 °C 30.1in /  1019.1hPa WNW 3.4mph /  5.4km/h 5.6mph /  9km/h 78% 0in /  0.0mm
11:11 64 °F /  17.8 °C 55.6 °F /  13.1 °C 30.1in /  1019.3hPa WNW 6mph /  9.7km/h 8.1mph /  13km/h 74% 0in /  0.0mm
12:11 65.3 °F /  18.5 °C 55.4 °F /  13 °C 30.1in /  1018.7hPa Calm   7.8mph /  12.6km/h 70% 0in /  0.0mm
13:11 65.3 °F /  18.5 °C 54.5 °F /  12.5 °C 30.1in /  1018.4hPa Calm   5.6mph /  9km/h 68% 0in /  0.0mm
14:11 67.3 °F /  19.6 °C 56.3 °F /  13.5 °C 30.1in /  1017.7hPa SSE 2.2mph /  3.6km/h 6.3mph /  10.1km/h 68% 0in /  0.0mm
15:11 67.3 °F /  19.6 °C 54.7 °F /  12.6 °C 30in /  1016.9hPa Calm   14.1mph /  22.7km/h 64% 0in /  0.0mm
16:11 67.6 °F /  19.8 °C 53.8 °F /  12.1 °C 30in /  1016.2hPa West 15mph /  24.1km/h 16.1mph /  25.9km/h 61% 0in /  0.0mm
17:11 67.3 °F /  19.6 °C 52 °F /  11.1 °C 30in /  1015.9hPa West 7.6mph /  12.2km/h 15mph /  24.1km/h 58% 0in /  0.0mm
18:11 66.4 °F /  19.1 °C 49.3 °F /  9.6 °C 30in /  1015.6hPa WSW 4mph /  6.5km/h 12.7mph /  20.5km/h 54% 0in /  0.0mm
19:11 63.5 °F /  17.5 °C 47.5 °F /  8.6 °C 30in /  1015.7hPa Calm   5.2mph /  8.3km/h 56% 0in /  0.0mm
20:11 61.3 °F /  16.3 °C 47.5 °F /  8.6 °C 30in /  1016.0hPa West 2.9mph /  4.7km/h 5.6mph /  9km/h 60% 0in /  0.0mm
21:11 59.5 °F /  15.3 °C 46.9 °F /  8.3 °C 30in /  1015.5hPa Calm   1.8mph /  2.9km/h 63% 0in /  0.0mm
22:11 57.9 °F /  14.4 °C 46.9 °F /  8.3 °C 30in /  1015.2hPa Calm   2.7mph /  4.3km/h 67% 0in /  0.0mm
23:11 57 °F /  13.9 °C 46.9 °F /  8.3 °C 30in /  1015.7hPa NNW 7.4mph /  11.9km/h 7.4mph /  11.9km/h 69% 0in /  0.0mm
Observations météo à CASSIS
WU-History script by Weather Underground - 2 mb